createdAt,value
2023-05-16T00:01:56.521Z,102062.75
2023-05-16T00:04:41.450Z,102073.31
2023-05-16T00:07:26.909Z,102074.94
2023-05-16T00:10:12.170Z,102074.84
2023-05-16T00:12:57.501Z,102060.97
2023-05-16T00:15:43.944Z,102067.84
2023-05-16T00:18:29.306Z,102051.72
2023-05-16T00:21:14.703Z,102051.00
2023-05-16T00:23:59.791Z,102073.53
2023-05-16T00:26:45.428Z,102068.59
2023-05-16T00:29:35.265Z,102068.78
2023-05-16T00:32:20.245Z,102073.16
2023-05-16T00:35:07.027Z,102061.94
2023-05-16T00:37:51.932Z,102062.91
2023-05-16T00:40:37.046Z,102054.38
2023-05-16T00:43:22.371Z,102071.94
2023-05-16T00:46:07.654Z,102071.94
2023-05-16T00:48:53.178Z,102072.69
2023-05-16T00:51:39.298Z,102077.91
2023-05-16T00:54:26.961Z,102082.25
2023-05-16T00:57:12.736Z,102078.09
2023-05-16T00:59:57.837Z,102082.81
2023-05-16T01:02:43.673Z,102080.31
2023-05-16T01:05:29.436Z,102078.69
2023-05-16T01:08:14.725Z,102073.56
2023-05-16T01:11:26.832Z,102078.44
2023-05-16T01:14:36.222Z,102078.19
2023-05-16T01:17:40.432Z,102076.25
2023-05-16T01:20:42.055Z,102076.94
2023-05-16T01:23:57.986Z,102075.72
2023-05-16T01:26:44.789Z,102064.38
2023-05-16T01:29:30.085Z,102067.00
2023-05-16T01:32:16.776Z,102080.72
2023-05-16T01:35:01.695Z,102080.03
2023-05-16T01:38:12.661Z,102078.50
2023-05-16T01:41:07.818Z,102075.78
2023-05-16T01:44:00.367Z,102069.03
2023-05-16T01:46:47.394Z,102072.50
2023-05-16T01:49:43.474Z,102077.22
2023-05-16T01:52:53.549Z,102066.50
2023-05-16T01:55:51.139Z,102036.59
2023-05-16T01:58:37.253Z,102056.91
2023-05-16T02:01:22.996Z,102055.22
2023-05-16T02:04:15.925Z,102048.91
2023-05-16T02:07:01.925Z,102040.47
2023-05-16T02:09:46.747Z,102040.44
2023-05-16T02:12:31.682Z,102039.44
2023-05-16T02:15:16.593Z,102049.56
2023-05-16T02:18:01.943Z,102041.66
2023-05-16T02:20:47.641Z,102045.81
2023-05-16T02:23:32.763Z,102052.13
2023-05-16T02:26:17.573Z,102046.44
2023-05-16T02:29:02.751Z,102064.44
2023-05-16T02:31:48.292Z,102061.94
2023-05-16T02:34:33.305Z,102063.56
2023-05-16T02:37:18.244Z,102040.84
2023-05-16T02:40:07.558Z,102048.41
2023-05-16T02:42:52.523Z,102063.16
2023-05-16T02:45:37.447Z,102055.47
2023-05-16T02:48:22.547Z,102048.63
2023-05-16T02:51:07.431Z,102058.16
2023-05-16T02:53:53.228Z,102059.97
2023-05-16T02:56:38.450Z,102042.03
2023-05-16T02:59:23.412Z,102050.94
2023-05-16T03:02:08.381Z,102053.31
2023-05-16T03:04:53.753Z,102052.47
2023-05-16T03:07:39.613Z,102047.25
2023-05-16T03:10:24.725Z,102047.03
2023-05-16T03:13:10.026Z,102045.41
2023-05-16T03:15:55.193Z,102048.78
2023-05-16T03:18:40.385Z,102056.31
2023-05-16T03:21:25.967Z,102037.34
2023-05-16T03:24:11.170Z,102048.66
2023-05-16T03:26:56.324Z,102044.59
2023-05-16T03:29:41.183Z,102043.94
2023-05-16T03:32:26.360Z,102051.94
2023-05-16T03:35:12.060Z,102058.88
2023-05-16T03:37:57.389Z,102056.25
2023-05-16T03:40:43.259Z,102051.25
2023-05-16T03:43:28.759Z,102042.88
2023-05-16T03:46:13.839Z,102055.06
2023-05-16T03:48:58.993Z,102054.22
2023-05-16T03:51:44.265Z,102053.41
2023-05-16T03:54:29.601Z,102050.19
2023-05-16T03:57:14.966Z,102047.78
2023-05-16T04:00:00.566Z,102040.38
2023-05-16T04:02:45.835Z,102060.41
2023-05-16T04:05:31.260Z,102058.13
2023-05-16T04:08:16.766Z,102059.72
2023-05-16T04:11:01.590Z,102066.44
2023-05-16T04:13:46.447Z,102064.72
2023-05-16T04:16:31.441Z,102042.66
2023-05-16T04:19:16.533Z,102055.53
2023-05-16T04:22:02.066Z,102043.81
2023-05-16T04:24:47.163Z,102061.91
2023-05-16T04:27:32.126Z,102061.06
2023-05-16T04:30:17.525Z,102067.13
2023-05-16T04:33:02.896Z,102061.91
2023-05-16T04:35:48.571Z,102055.31
2023-05-16T04:38:33.831Z,102065.50
2023-05-16T04:41:18.619Z,102067.34
2023-05-16T04:44:06.406Z,102061.22
2023-05-16T04:46:51.996Z,102051.34
2023-05-16T04:49:36.974Z,102069.47
2023-05-16T04:52:22.059Z,102070.50
2023-05-16T04:55:07.502Z,102071.41
2023-05-16T04:57:52.681Z,102083.50
2023-05-16T05:00:38.436Z,102083.41
2023-05-16T05:03:23.870Z,102083.50
2023-05-16T05:06:08.954Z,102073.34
2023-05-16T05:08:54.580Z,102081.69
2023-05-16T05:11:39.930Z,102087.59
2023-05-16T05:14:25.034Z,102086.63
2023-05-16T05:17:09.994Z,102090.03
2023-05-16T05:19:54.964Z,102090.88
2023-05-16T05:22:40.334Z,102092.22
2023-05-16T05:25:26.575Z,102078.97
2023-05-16T05:28:11.990Z,102098.28
2023-05-16T05:30:56.945Z,102099.66
2023-05-16T05:33:42.431Z,102103.78
2023-05-16T05:36:27.674Z,102107.06
2023-05-16T05:39:12.826Z,102107.78
2023-05-16T05:41:58.728Z,102119.66
2023-05-16T05:44:44.037Z,102115.19
2023-05-16T05:47:29.177Z,102114.06
2023-05-16T05:50:15.622Z,102120.81
2023-05-16T05:53:01.036Z,102094.88
2023-05-16T05:55:46.339Z,102124.50
2023-05-16T05:58:32.020Z,102124.22
2023-05-16T06:01:17.203Z,102118.59
2023-05-16T06:04:02.574Z,102119.25
2023-05-16T06:06:48.286Z,102113.88
2023-05-16T06:09:33.066Z,102111.22
2023-05-16T06:12:18.026Z,102127.91
2023-05-16T06:15:03.179Z,102109.34
2023-05-16T06:17:48.660Z,102128.56
2023-05-16T06:20:34.096Z,102133.25
2023-05-16T06:23:21.350Z,102127.56
2023-05-16T06:26:06.662Z,102128.06
2023-05-16T06:28:51.522Z,102120.59
2023-05-16T06:31:36.787Z,102117.84
2023-05-16T06:34:28.155Z,102139.72
2023-05-16T06:37:13.043Z,102134.69
2023-05-16T06:39:59.140Z,102119.22
2023-05-16T06:42:44.039Z,102119.09
2023-05-16T06:45:29.312Z,102127.88
2023-05-16T06:48:15.708Z,102138.31
2023-05-16T06:51:01.044Z,102136.00
2023-05-16T06:53:46.300Z,102132.78
2023-05-16T06:56:31.634Z,102133.28
2023-05-16T06:59:16.833Z,102138.16
2023-05-16T07:02:02.451Z,102143.09
2023-05-16T07:04:47.870Z,102135.25
2023-05-16T07:07:32.878Z,102125.31
2023-05-16T07:10:17.761Z,102135.78
2023-05-16T07:13:02.750Z,102132.84
2023-05-16T07:15:47.595Z,102134.41
2023-05-16T07:18:35.106Z,102146.22
2023-05-16T07:21:20.414Z,102131.56
2023-05-16T07:24:06.157Z,102144.97
2023-05-16T07:26:51.811Z,102147.91
2023-05-16T07:29:38.450Z,102151.22
2023-05-16T07:32:23.768Z,102152.25
2023-05-16T07:35:09.742Z,102161.31
2023-05-16T07:37:54.696Z,102155.59
2023-05-16T07:40:40.129Z,102158.06
2023-05-16T07:43:25.097Z,102153.78
2023-05-16T07:46:13.556Z,102137.72
2023-05-16T07:48:58.702Z,102155.13
2023-05-16T07:51:43.574Z,102154.53
2023-05-16T07:54:28.465Z,102158.47
2023-05-16T07:57:15.245Z,102155.31
2023-05-16T08:00:00.568Z,102152.44
2023-05-16T08:02:46.135Z,102165.06
2023-05-16T08:05:31.489Z,102154.50
2023-05-16T08:08:16.710Z,102161.56
2023-05-16T08:11:01.728Z,102141.66
2023-05-16T08:13:46.776Z,102151.00
2023-05-16T08:16:32.379Z,102154.66
2023-05-16T08:19:17.689Z,102149.44
2023-05-16T08:22:03.568Z,102156.97
2023-05-16T08:24:48.682Z,102147.84
2023-05-16T08:27:33.786Z,102153.25
2023-05-16T08:30:19.233Z,102133.47
2023-05-16T08:33:05.355Z,102164.91
2023-05-16T08:35:52.890Z,102142.97
2023-05-16T08:38:37.894Z,102160.97
2023-05-16T08:41:23.148Z,102155.59
2023-05-16T08:44:10.362Z,102140.00
2023-05-16T08:46:56.941Z,102153.25
2023-05-16T08:49:43.940Z,102158.72
2023-05-16T08:52:31.321Z,102150.41
2023-05-16T08:55:19.261Z,102154.63
2023-05-16T08:58:04.550Z,102140.59
2023-05-16T09:00:49.683Z,102135.97
2023-05-16T09:03:39.080Z,102147.88
2023-05-16T09:06:24.855Z,102156.03
2023-05-16T09:09:12.935Z,102149.03
2023-05-16T09:11:58.102Z,102152.63
2023-05-16T09:14:43.486Z,102158.69
2023-05-16T09:17:43.885Z,102153.72
2023-05-16T09:20:29.063Z,102159.56
2023-05-16T09:23:16.184Z,102160.72
2023-05-16T09:26:01.939Z,102162.41
2023-05-16T09:28:47.411Z,102152.44
2023-05-16T09:31:37.919Z,102164.94
2023-05-16T09:34:23.504Z,102156.25
2023-05-16T09:37:10.576Z,102172.78
2023-05-16T09:39:56.178Z,102156.38
2023-05-16T09:42:42.634Z,102163.84
2023-05-16T09:45:27.734Z,102166.22
2023-05-16T09:48:14.498Z,102172.88
2023-05-16T09:51:04.393Z,102161.00
2023-05-16T09:53:49.760Z,102171.78
2023-05-16T09:56:49.452Z,102173.44
2023-05-16T09:59:41.889Z,102167.31
2023-05-16T10:02:28.081Z,102163.88
2023-05-16T10:05:13.304Z,102162.72
2023-05-16T10:07:58.796Z,102154.63
2023-05-16T10:10:43.939Z,102163.97
2023-05-16T10:13:31.365Z,102163.25
2023-05-16T10:16:16.678Z,102163.63
2023-05-16T10:19:03.866Z,102157.84
2023-05-16T10:21:53.357Z,102166.84
2023-05-16T10:24:45.064Z,102165.25
2023-05-16T10:27:31.099Z,102161.47
2023-05-16T10:30:17.428Z,102168.53
2023-05-16T10:33:04.331Z,102169.41
2023-05-16T10:35:50.490Z,102165.41
2023-05-16T10:38:36.869Z,102159.81
2023-05-16T10:41:22.025Z,102151.03
2023-05-16T10:44:13.793Z,102155.78
2023-05-16T10:47:01.390Z,102146.31
2023-05-16T10:49:46.950Z,102149.50
2023-05-16T10:52:35.438Z,102137.63
2023-05-16T10:55:20.972Z,102137.69
2023-05-16T10:58:06.356Z,102128.28
2023-05-16T11:01:23.818Z,102137.94
2023-05-16T11:04:11.230Z,102143.22
2023-05-16T11:06:58.717Z,102141.81
2023-05-16T11:09:45.345Z,102142.16
2023-05-16T11:12:50.641Z,102146.72
2023-05-16T11:15:35.689Z,102123.72
2023-05-16T11:18:20.990Z,102140.19
2023-05-16T11:21:06.319Z,102144.06
2023-05-16T11:24:32.846Z,102138.31
2023-05-16T11:27:28.004Z,102133.19
2023-05-16T11:30:19.267Z,102126.16
2023-05-16T11:33:04.638Z,102129.34
2023-05-16T11:36:15.131Z,102128.06
2023-05-16T11:39:12.297Z,102128.09
2023-05-16T11:41:57.959Z,102121.19
2023-05-16T11:44:43.387Z,102122.28
2023-05-16T11:47:29.863Z,102127.25
2023-05-16T11:50:19.972Z,102116.38
2023-05-16T11:53:05.047Z,102120.53
2023-05-16T11:55:55.010Z,102114.09
2023-05-16T11:58:42.530Z,102124.38
2023-05-16T12:01:37.215Z,102126.69
2023-05-16T12:04:23.380Z,102123.00
2023-05-16T12:07:08.721Z,102127.75
2023-05-16T12:09:54.054Z,102121.59
2023-05-16T12:12:41.613Z,102121.84
2023-05-16T12:15:27.043Z,102121.25
2023-05-16T12:18:13.028Z,102123.47
2023-05-16T12:20:58.446Z,102117.41
2023-05-16T12:23:43.702Z,102116.72
2023-05-16T12:26:31.257Z,102123.56
2023-05-16T12:29:16.510Z,102120.06
2023-05-16T12:32:01.989Z,102126.06
2023-05-16T12:34:52.104Z,102123.59
2023-05-16T12:37:37.262Z,102121.91
2023-05-16T12:40:23.857Z,102115.47
2023-05-16T12:43:22.229Z,102115.22
2023-05-16T12:46:11.520Z,102104.69
2023-05-16T12:49:02.726Z,102110.22
2023-05-16T12:51:52.621Z,102110.53
2023-05-16T12:54:38.073Z,102110.06
2023-05-16T12:57:23.075Z,102114.91
2023-05-16T13:00:08.367Z,102116.59
2023-05-16T13:02:53.422Z,102113.13
2023-05-16T13:05:38.901Z,102120.41
2023-05-16T13:08:24.801Z,102113.13
2023-05-16T13:11:09.819Z,102103.50
2023-05-16T13:13:54.855Z,102099.25
2023-05-16T13:16:39.903Z,102095.66
2023-05-16T13:19:25.036Z,102106.09
2023-05-16T13:22:10.653Z,102098.31
2023-05-16T13:24:55.864Z,102092.81
2023-05-16T13:27:42.062Z,102106.19
2023-05-16T13:30:27.025Z,102093.97
2023-05-16T13:33:12.410Z,102103.09
2023-05-16T13:35:57.601Z,102099.19
2023-05-16T13:38:42.760Z,102093.81
2023-05-16T13:41:27.975Z,102105.44
2023-05-16T13:44:13.041Z,102086.78
2023-05-16T13:46:58.304Z,102098.69
2023-05-16T13:49:43.736Z,102099.69
2023-05-16T13:52:29.002Z,102099.03
2023-05-16T13:55:14.319Z,102091.31
2023-05-16T13:58:00.035Z,102090.97
2023-05-16T14:00:46.222Z,102094.00
2023-05-16T14:03:32.230Z,102087.97
2023-05-16T14:06:17.827Z,102087.81
2023-05-16T14:09:03.869Z,102096.69
2023-05-16T14:11:49.246Z,102097.19
2023-05-16T14:14:35.653Z,102092.50
2023-05-16T14:17:20.866Z,102085.94
2023-05-16T14:20:09.668Z,102091.31
2023-05-16T14:22:54.882Z,102091.31
2023-05-16T14:25:39.756Z,102090.31
2023-05-16T14:28:24.792Z,102099.69
2023-05-16T14:31:10.001Z,102101.00
2023-05-16T14:33:55.662Z,102098.53
2023-05-16T14:36:40.632Z,102093.00
2023-05-16T14:39:27.123Z,102092.63
2023-05-16T14:42:12.741Z,102085.94
2023-05-16T14:44:57.826Z,102088.00
2023-05-16T14:47:43.719Z,102084.16
2023-05-16T14:50:28.911Z,102086.28
2023-05-16T14:53:13.800Z,102082.75
2023-05-16T14:55:59.510Z,102090.81
2023-05-16T14:58:44.577Z,102085.94
2023-05-16T15:01:30.003Z,102086.81
2023-05-16T15:04:21.428Z,102085.00
2023-05-16T15:07:07.372Z,102087.25
2023-05-16T15:09:52.451Z,102074.91
2023-05-16T15:12:40.782Z,102081.75
2023-05-16T15:15:26.160Z,102093.97
2023-05-16T15:18:11.730Z,102081.53
2023-05-16T15:20:56.822Z,102088.00
2023-05-16T15:23:42.563Z,102092.97
2023-05-16T15:26:27.931Z,102073.13
2023-05-16T15:29:13.116Z,102096.88
2023-05-16T15:31:58.305Z,102097.78
2023-05-16T15:34:43.262Z,102080.69
2023-05-16T15:37:28.303Z,102105.09
2023-05-16T15:40:13.965Z,102099.44
2023-05-16T15:42:59.016Z,102097.81
2023-05-16T15:45:44.939Z,102087.47
2023-05-16T15:48:29.736Z,102102.03
2023-05-16T15:51:16.091Z,102105.97
2023-05-16T15:54:02.270Z,102112.91
2023-05-16T15:56:47.368Z,102113.22
2023-05-16T15:59:32.751Z,102120.81
2023-05-16T16:02:18.113Z,102125.84
2023-05-16T16:05:03.483Z,102120.25
2023-05-16T16:07:48.679Z,102118.00
2023-05-16T16:10:36.671Z,102094.44
2023-05-16T16:13:22.879Z,102114.63
2023-05-16T16:16:08.321Z,102123.47
2023-05-16T16:18:53.889Z,102116.59
2023-05-16T16:21:38.985Z,102110.63
2023-05-16T16:24:23.865Z,102127.28
2023-05-16T16:27:08.884Z,102124.31
2023-05-16T16:29:54.091Z,102130.19
2023-05-16T16:32:39.369Z,102097.31
2023-05-16T16:35:26.194Z,102110.00
2023-05-16T16:38:11.781Z,102128.53
2023-05-16T16:40:56.784Z,102126.94
2023-05-16T16:43:42.223Z,102128.78
2023-05-16T16:46:27.162Z,102133.31
2023-05-16T16:49:12.164Z,102138.16
2023-05-16T16:51:57.903Z,102129.28
2023-05-16T16:54:42.846Z,102144.84
2023-05-16T16:57:28.098Z,102137.84
2023-05-16T17:00:14.151Z,102135.06
2023-05-16T17:02:59.185Z,102141.22
2023-05-16T17:05:45.055Z,102128.44
2023-05-16T17:08:29.827Z,102138.75
2023-05-16T17:11:22.401Z,102147.16
2023-05-16T17:14:10.504Z,102158.97
2023-05-16T17:16:55.757Z,102156.56
2023-05-16T17:19:40.972Z,102151.59
2023-05-16T17:22:26.482Z,102151.75
2023-05-16T17:25:11.692Z,102154.03
2023-05-16T17:27:57.164Z,102152.59
2023-05-16T17:30:42.580Z,102156.47
2023-05-16T17:33:27.840Z,102160.59
2023-05-16T17:36:13.187Z,102142.97
2023-05-16T17:38:59.247Z,102158.91
2023-05-16T17:41:44.158Z,102144.53
2023-05-16T17:44:29.177Z,102162.53
2023-05-16T17:47:14.127Z,102160.47
2023-05-16T17:49:59.627Z,102160.97
2023-05-16T17:52:44.899Z,102160.59
2023-05-16T17:55:30.449Z,102166.66
2023-05-16T17:58:15.588Z,102172.69
2023-05-16T18:01:00.813Z,102179.91
2023-05-16T18:03:46.024Z,102164.94
2023-05-16T18:06:31.804Z,102175.31
2023-05-16T18:09:16.917Z,102175.78
2023-05-16T18:12:02.249Z,102180.38
2023-05-16T18:14:47.649Z,102183.63
2023-05-16T18:17:36.363Z,102166.56
2023-05-16T18:20:21.905Z,102179.72
2023-05-16T18:23:08.148Z,102171.03
2023-05-16T18:25:53.980Z,102190.66
2023-05-16T18:28:39.468Z,102182.69
2023-05-16T18:31:24.537Z,102191.81
2023-05-16T18:34:10.329Z,102187.94
2023-05-16T18:36:55.371Z,102187.63
2023-05-16T18:39:41.593Z,102189.06
2023-05-16T18:42:27.265Z,102203.00
2023-05-16T18:45:14.986Z,102201.31
2023-05-16T18:48:00.372Z,102201.28
2023-05-16T18:50:45.922Z,102206.16
2023-05-16T18:53:31.212Z,102191.06
2023-05-16T18:56:16.546Z,102203.06
2023-05-16T18:59:01.566Z,102206.09
2023-05-16T19:01:47.182Z,102201.47
2023-05-16T19:04:32.202Z,102212.81
2023-05-16T19:07:17.870Z,102218.53
2023-05-16T19:10:03.710Z,102221.63
2023-05-16T19:12:49.483Z,102232.81
2023-05-16T19:15:37.917Z,102230.09
2023-05-16T19:18:22.905Z,102230.75
2023-05-16T19:21:08.635Z,102230.75
2023-05-16T19:23:54.135Z,102228.72
2023-05-16T19:26:39.986Z,102235.50
2023-05-16T19:29:25.345Z,102235.19
2023-05-16T19:32:10.732Z,102238.78
2023-05-16T19:34:56.624Z,102246.50
2023-05-16T19:37:41.720Z,102248.31
2023-05-16T19:40:26.537Z,102250.09
2023-05-16T19:43:11.586Z,102257.38
2023-05-16T19:45:56.756Z,102261.22
2023-05-16T19:48:41.808Z,102243.72
2023-05-16T19:54:32.357Z,102265.50
2023-05-16T19:57:19.691Z,102268.56
2023-05-16T20:00:05.469Z,102273.38
2023-05-16T20:02:50.946Z,102278.00
2023-05-16T20:05:36.198Z,102282.75
2023-05-16T20:08:21.354Z,102284.97
2023-05-16T20:11:06.496Z,102287.91
2023-05-16T20:13:51.566Z,102288.31
2023-05-16T20:16:36.454Z,102282.16
2023-05-16T20:19:21.432Z,102277.69
2023-05-16T20:22:06.795Z,102283.81
2023-05-16T20:24:52.151Z,102293.72
2023-05-16T20:27:37.698Z,102290.19
2023-05-16T20:30:22.765Z,102307.91
2023-05-16T20:33:07.943Z,102296.88
2023-05-16T20:35:53.504Z,102292.47
2023-05-16T20:38:38.910Z,102288.59
2023-05-16T20:41:23.938Z,102312.28
2023-05-16T20:44:09.314Z,102287.22
2023-05-16T20:46:54.623Z,102317.47
2023-05-16T20:49:39.936Z,102323.19
2023-05-16T20:52:25.487Z,102319.91
2023-05-16T20:55:10.648Z,102322.03
2023-05-16T20:57:55.890Z,102327.41
2023-05-16T21:00:41.337Z,102327.56
2023-05-16T21:03:26.643Z,102326.44
2023-05-16T21:06:11.758Z,102333.56
2023-05-16T21:08:57.341Z,102340.78
2023-05-16T21:11:42.485Z,102332.22
2023-05-16T21:14:27.817Z,102348.13
2023-05-16T21:17:12.880Z,102357.22
2023-05-16T21:19:58.028Z,102336.25
2023-05-16T21:22:43.492Z,102354.69
2023-05-16T21:25:28.922Z,102351.44
2023-05-16T21:28:14.181Z,102353.34
2023-05-16T21:30:59.149Z,102359.28
2023-05-16T21:33:44.145Z,102358.44
2023-05-16T21:36:29.645Z,102353.34
2023-05-16T21:39:14.437Z,102351.13
2023-05-16T21:42:00.699Z,102348.09
2023-05-16T21:44:45.468Z,102368.03
2023-05-16T21:47:30.576Z,102351.28
2023-05-16T21:50:16.006Z,102361.81
2023-05-16T21:53:01.177Z,102375.13
2023-05-16T21:55:46.225Z,102369.41
2023-05-16T21:58:31.335Z,102365.44
2023-05-16T22:01:16.849Z,102366.00
2023-05-16T22:04:02.283Z,102369.72
2023-05-16T22:06:47.649Z,102360.00
2023-05-16T22:09:32.742Z,102370.84
2023-05-16T22:12:17.712Z,102369.47
2023-05-16T22:15:02.988Z,102368.31
2023-05-16T22:17:48.246Z,102366.63
2023-05-16T22:20:34.102Z,102369.03
2023-05-16T22:23:19.297Z,102383.94
2023-05-16T22:26:04.759Z,102374.03
2023-05-16T22:28:49.688Z,102387.66
2023-05-16T22:31:34.704Z,102385.00
2023-05-16T22:34:20.068Z,102357.28
2023-05-16T22:37:09.340Z,102380.75
2023-05-16T22:39:54.206Z,102387.19
2023-05-16T22:42:39.544Z,102385.91
2023-05-16T22:45:24.552Z,102382.94
2023-05-16T22:48:09.627Z,102388.91
2023-05-16T22:50:54.868Z,102385.22
2023-05-16T22:53:40.474Z,102370.72
2023-05-16T22:56:25.793Z,102376.78
2023-05-16T22:59:10.992Z,102386.41
2023-05-16T23:01:56.155Z,102382.56
2023-05-16T23:04:41.506Z,102398.22
2023-05-16T23:07:28.848Z,102388.78
2023-05-16T23:10:14.254Z,102389.09
2023-05-16T23:12:59.454Z,102392.66
2023-05-16T23:15:44.475Z,102366.25
2023-05-16T23:18:29.372Z,102389.00
2023-05-16T23:21:14.893Z,102387.56
2023-05-16T23:24:00.359Z,102393.34
2023-05-16T23:26:45.490Z,102394.75
2023-05-16T23:29:30.475Z,102370.97
2023-05-16T23:32:15.392Z,102381.34
2023-05-16T23:35:00.900Z,102396.06
2023-05-16T23:37:45.937Z,102406.84
2023-05-16T23:40:30.739Z,102389.53
2023-05-16T23:43:15.769Z,102375.09
2023-05-16T23:46:01.067Z,102391.53
2023-05-16T23:48:46.260Z,102396.97
2023-05-16T23:51:44.990Z,102390.09
2023-05-16T23:54:36.568Z,102401.63
2023-05-16T23:57:21.823Z,102390.75
